sensor_id;sensor_type;location;lat;lon;timestamp;pressure;altitude;pressure_sealevel;temperature;humidity
51359;BME280;37448;51.588;7.248;2023-09-30T00:00:03;101841.25;;;12.04;89.03
51359;BME280;37448;51.588;7.248;2023-09-30T00:02:11;101845.63;;;12.02;88.98
51359;BME280;37448;51.588;7.248;2023-09-30T00:04:11;101840.41;;;11.99;88.78
51359;BME280;37448;51.588;7.248;2023-09-30T00:06:11;101835.19;;;11.97;89.38
51359;BME280;37448;51.588;7.248;2023-09-30T00:08:12;101835.19;;;11.97;89.47
51359;BME280;37448;51.588;7.248;2023-09-30T00:10:12;101831.72;;;11.95;89.63
51359;BME280;37448;51.588;7.248;2023-09-30T00:12:12;101838.72;;;11.90;89.00
51359;BME280;37448;51.588;7.248;2023-09-30T00:14:13;101839.59;;;11.90;89.03
51359;BME280;37448;51.588;7.248;2023-09-30T00:16:13;101834.38;;;11.89;89.53
51359;BME280;37448;51.588;7.248;2023-09-30T00:18:14;101838.72;;;11.90;89.65
51359;BME280;37448;51.588;7.248;2023-09-30T00:20:14;101845.69;;;11.91;90.00
51359;BME280;37448;51.588;7.248;2023-09-30T00:22:17;101849.19;;;11.91;90.19
51359;BME280;37448;51.588;7.248;2023-09-30T00:24:18;101847.44;;;11.92;90.12
51359;BME280;37448;51.588;7.248;2023-09-30T00:26:18;101843.97;;;11.90;90.14
51359;BME280;37448;51.588;7.248;2023-09-30T00:28:21;101849.16;;;11.93;90.18
51359;BME280;37448;51.588;7.248;2023-09-30T00:30:21;101847.47;;;11.89;90.20
51359;BME280;37448;51.588;7.248;2023-09-30T00:32:21;101850.06;;;11.89;90.28
51359;BME280;37448;51.588;7.248;2023-09-30T00:34:22;101844.84;;;11.89;90.15
51359;BME280;37448;51.588;7.248;2023-09-30T00:36:22;101848.31;;;11.91;90.90
51359;BME280;37448;51.588;7.248;2023-09-30T00:38:23;101840.47;;;11.91;90.70
51359;BME280;37448;51.588;7.248;2023-09-30T00:40:25;101837.84;;;11.92;90.61
51359;BME280;37448;51.588;7.248;2023-09-30T00:42:25;101827.38;;;11.94;90.78
51359;BME280;37448;51.588;7.248;2023-09-30T00:44:26;101840.47;;;11.94;90.73
51359;BME280;37448;51.588;7.248;2023-09-30T00:46:29;101844.78;;;11.98;91.32
51359;BME280;37448;51.588;7.248;2023-09-30T00:48:30;101848.25;;;12.02;91.62
51359;BME280;37448;51.588;7.248;2023-09-30T00:50:30;101846.53;;;12.01;91.05
51359;BME280;37448;51.588;7.248;2023-09-30T00:52:31;101850.00;;;12.03;91.11
51359;BME280;37448;51.588;7.248;2023-09-30T00:54:33;101835.16;;;12.00;90.84
51359;BME280;37448;51.588;7.248;2023-09-30T00:56:42;101834.28;;;12.03;90.83
51359;BME280;37448;51.588;7.248;2023-09-30T00:58:45;101833.41;;;12.05;91.39
51359;BME280;37448;51.588;7.248;2023-09-30T01:00:47;101828.16;;;12.07;91.64
51359;BME280;37448;51.588;7.248;2023-09-30T01:02:47;101832.50;;;12.10;91.62
51359;BME280;37448;51.588;7.248;2023-09-30T01:04:48;101845.59;;;12.10;91.01
51359;BME280;37448;51.588;7.248;2023-09-30T01:06:49;101860.41;;;12.12;91.37
51359;BME280;37448;51.588;7.248;2023-09-30T01:08:50;101868.22;;;12.14;91.15
51359;BME280;37448;51.588;7.248;2023-09-30T01:10:50;101856.00;;;12.16;91.44
51359;BME280;37448;51.588;7.248;2023-09-30T01:12:51;101859.47;;;12.21;91.83
51359;BME280;37448;51.588;7.248;2023-09-30T01:14:57;101859.47;;;12.21;91.50
51359;BME280;37448;51.588;7.248;2023-09-30T01:16:58;101857.72;;;12.20;90.69
51359;BME280;37448;51.588;7.248;2023-09-30T01:18:58;101851.63;;;12.18;91.26
51359;BME280;37448;51.588;7.248;2023-09-30T01:21:03;101857.69;;;12.22;91.15
51359;BME280;37448;51.588;7.248;2023-09-30T01:23:03;101843.72;;;12.23;91.19
51359;BME280;37448;51.588;7.248;2023-09-30T01:25:04;101840.28;;;12.19;90.66
51359;BME280;37448;51.588;7.248;2023-09-30T01:27:05;101839.41;;;12.17;90.43
51359;BME280;37448;51.588;7.248;2023-09-30T01:29:05;101835.03;;;12.17;90.77
51359;BME280;37448;51.588;7.248;2023-09-30T01:31:05;101842.03;;;12.17;91.44
51359;BME280;37448;51.588;7.248;2023-09-30T01:33:06;101842.03;;;12.14;91.67
51359;BME280;37448;51.588;7.248;2023-09-30T01:35:08;101849.06;;;12.12;91.00
51359;BME280;37448;51.588;7.248;2023-09-30T01:37:08;101843.84;;;12.09;90.56
51359;BME280;37448;51.588;7.248;2023-09-30T01:39:10;101844.72;;;12.08;91.35
51359;BME280;37448;51.588;7.248;2023-09-30T01:41:11;101848.22;;;12.05;91.12
51359;BME280;37448;51.588;7.248;2023-09-30T01:43:11;101848.25;;;12.03;91.47
51359;BME280;37448;51.588;7.248;2023-09-30T01:45:14;101854.38;;;12.02;91.42
51359;BME280;37448;51.588;7.248;2023-09-30T01:47:14;101863.97;;;12.02;91.53
51359;BME280;37448;51.588;7.248;2023-09-30T01:49:15;101866.59;;;12.00;91.56
51359;BME280;37448;51.588;7.248;2023-09-30T01:51:15;101863.09;;;12.03;91.75
51359;BME280;37448;51.588;7.248;2023-09-30T01:53:16;101874.41;;;12.05;92.17
51359;BME280;37448;51.588;7.248;2023-09-30T01:55:16;101880.53;;;12.05;92.15
51359;BME280;37448;51.588;7.248;2023-09-30T01:57:17;101876.16;;;12.08;92.23
51359;BME280;37448;51.588;7.248;2023-09-30T01:59:17;101869.19;;;12.06;91.95
51359;BME280;37448;51.588;7.248;2023-09-30T02:01:18;101857.81;;;12.08;92.19
51359;BME280;37448;51.588;7.248;2023-09-30T02:03:18;101859.56;;;12.09;92.19
51359;BME280;37448;51.588;7.248;2023-09-30T02:05:18;101858.69;;;12.06;92.09
51359;BME280;37448;51.588;7.248;2023-09-30T02:07:19;101862.19;;;12.05;91.90
51359;BME280;37448;51.588;7.248;2023-09-30T02:09:19;101864.81;;;12.05;92.07
51359;BME280;37448;51.588;7.248;2023-09-30T02:11:20;101877.91;;;12.04;91.94
51359;BME280;37448;51.588;7.248;2023-09-30T02:13:21;101888.38;;;12.04;92.10
51359;BME280;37448;51.588;7.248;2023-09-30T02:15:21;101884.91;;;12.02;92.15
51359;BME280;37448;51.588;7.248;2023-09-30T02:17:21;101882.28;;;12.00;91.85
51359;BME280;37448;51.588;7.248;2023-09-30T02:19:22;101885.78;;;11.99;91.83
51359;BME280;37448;51.588;7.248;2023-09-30T02:21:23;101887.56;;;11.97;92.00
51359;BME280;37448;51.588;7.248;2023-09-30T02:23:24;101891.03;;;11.93;91.29
51359;BME280;37448;51.588;7.248;2023-09-30T02:25:25;101880.59;;;11.90;91.74
51359;BME280;37448;51.588;7.248;2023-09-30T02:27:25;101873.63;;;11.89;91.84
51359;BME280;37448;51.588;7.248;2023-09-30T02:29:25;101871.91;;;11.88;91.73
51359;BME280;37448;51.588;7.248;2023-09-30T02:31:26;101868.41;;;11.86;92.04
51359;BME280;37448;51.588;7.248;2023-09-30T02:33:26;101869.34;;;11.83;92.18
51359;BME280;37448;51.588;7.248;2023-09-30T02:35:27;101860.59;;;11.83;92.00
51359;BME280;37448;51.588;7.248;2023-09-30T02:37:27;101860.59;;;11.81;92.23
51359;BME280;37448;51.588;7.248;2023-09-30T02:39:29;101855.38;;;11.80;91.87
51359;BME280;37448;51.588;7.248;2023-09-30T02:41:29;101858.03;;;11.76;91.76
51359;BME280;37448;51.588;7.248;2023-09-30T02:43:29;101857.16;;;11.76;91.90
51359;BME280;37448;51.588;7.248;2023-09-30T02:45:31;101857.19;;;11.74;92.16
51359;BME280;37448;51.588;7.248;2023-09-30T02:47:32;101846.72;;;11.71;91.87
51359;BME280;37448;51.588;7.248;2023-09-30T02:49:33;101842.38;;;11.69;91.60
51359;BME280;37448;51.588;7.248;2023-09-30T02:51:34;101847.59;;;11.67;91.61
51359;BME280;37448;51.588;7.248;2023-09-30T02:53:34;101851.16;;;11.61;91.21
51359;BME280;37448;51.588;7.248;2023-09-30T02:55:35;101862.50;;;11.60;91.05
51359;BME280;37448;51.588;7.248;2023-09-30T02:57:35;101863.38;;;11.58;91.31
51359;BME280;37448;51.588;7.248;2023-09-30T02:59:36;101872.09;;;11.57;91.14
51359;BME280;37448;51.588;7.248;2023-09-30T03:01:36;101879.13;;;11.52;91.06
51359;BME280;37448;51.588;7.248;2023-09-30T03:03:37;101889.59;;;11.48;91.12
51359;BME280;37448;51.588;7.248;2023-09-30T03:05:38;101881.78;;;11.44;91.04
51359;BME280;37448;51.588;7.248;2023-09-30T03:07:39;101887.00;;;11.44;91.55
51359;BME280;37448;51.588;7.248;2023-09-30T03:09:41;101875.69;;;11.42;91.43
51359;BME280;37448;51.588;7.248;2023-09-30T03:11:43;101879.16;;;11.39;91.57
51359;BME280;37448;51.588;7.248;2023-09-30T03:13:43;101873.09;;;11.39;92.05
51359;BME280;37448;51.588;7.248;2023-09-30T03:15:44;101880.94;;;11.39;91.90
51359;BME280;37448;51.588;7.248;2023-09-30T03:17:44;101879.16;;;11.39;91.96
51359;BME280;37448;51.588;7.248;2023-09-30T03:19:45;101879.16;;;11.39;92.59
51359;BME280;37448;51.588;7.248;2023-09-30T03:21:45;101871.34;;;11.41;92.47
51359;BME280;37448;51.588;7.248;2023-09-30T03:23:45;101861.72;;;11.41;92.39
51359;BME280;37448;51.588;7.248;2023-09-30T03:25:46;101863.47;;;11.41;92.51
51359;BME280;37448;51.588;7.248;2023-09-30T03:27:47;101860.84;;;11.42;92.39
51359;BME280;37448;51.588;7.248;2023-09-30T03:29:48;101865.22;;;11.42;92.24
51359;BME280;37448;51.588;7.248;2023-09-30T03:31:49;101863.47;;;11.42;92.61
51359;BME280;37448;51.588;7.248;2023-09-30T03:33:50;101866.94;;;11.41;92.39
51359;BME280;37448;51.588;7.248;2023-09-30T03:35:54;101864.38;;;11.40;92.11
51359;BME280;37448;51.588;7.248;2023-09-30T03:37:54;101868.72;;;11.39;92.48
51359;BME280;37448;51.588;7.248;2023-09-30T03:39:55;101871.34;;;11.38;92.32
51359;BME280;37448;51.588;7.248;2023-09-30T03:41:55;101863.50;;;11.36;92.04
51359;BME280;37448;51.588;7.248;2023-09-30T03:43:59;101858.28;;;11.33;92.08
51359;BME280;37448;51.588;7.248;2023-09-30T03:46:00;101865.28;;;11.31;91.91
51359;BME280;37448;51.588;7.248;2023-09-30T03:48:01;101858.31;;;11.30;92.25
51359;BME280;37448;51.588;7.248;2023-09-30T03:50:03;101862.69;;;11.28;92.01
51359;BME280;37448;51.588;7.248;2023-09-30T03:52:04;101868.78;;;11.27;92.25
51359;BME280;37448;51.588;7.248;2023-09-30T03:54:06;101876.63;;;11.27;92.39
51359;BME280;37448;51.588;7.248;2023-09-30T03:56:07;101874.00;;;11.27;92.51
51359;BME280;37448;51.588;7.248;2023-09-30T03:58:08;101882.75;;;11.26;92.50
51359;BME280;37448;51.588;7.248;2023-09-30T04:00:08;101865.31;;;11.25;92.48
51359;BME280;37448;51.588;7.248;2023-09-30T04:02:15;101860.09;;;11.25;92.45
51359;BME280;37448;51.588;7.248;2023-09-30T04:04:16;101853.13;;;11.24;92.29
51359;BME280;37448;51.588;7.248;2023-09-30T04:06:16;101856.63;;;11.23;92.00
51359;BME280;37448;51.588;7.248;2023-09-30T04:08:16;101870.56;;;11.22;92.03
51359;BME280;37448;51.588;7.248;2023-09-30T04:10:17;101871.44;;;11.19;92.30
51359;BME280;37448;51.588;7.248;2023-09-30T04:12:18;101870.53;;;11.18;92.17
51359;BME280;37448;51.588;7.248;2023-09-30T04:14:18;101865.34;;;11.17;92.44
51359;BME280;37448;51.588;7.248;2023-09-30T04:16:18;101870.56;;;11.15;92.31
51359;BME280;37448;51.588;7.248;2023-09-30T04:18:19;101865.34;;;11.12;91.89
51359;BME280;37448;51.588;7.248;2023-09-30T04:20:22;101866.22;;;11.11;91.53
51359;BME280;37448;51.588;7.248;2023-09-30T04:22:23;101867.09;;;11.09;91.76
51359;BME280;37448;51.588;7.248;2023-09-30T04:24:25;101863.66;;;11.05;91.36
51359;BME280;37448;51.588;7.248;2023-09-30T04:26:26;101861.03;;;11.03;91.82
51359;BME280;37448;51.588;7.248;2023-09-30T04:28:26;101861.06;;;11.02;91.14
51359;BME280;37448;51.588;7.248;2023-09-30T04:30:27;101867.16;;;11.01;91.80
51359;BME280;37448;51.588;7.248;2023-09-30T04:32:27;101866.28;;;11.00;92.34
51359;BME280;37448;51.588;7.248;2023-09-30T04:34:28;101868.88;;;11.00;92.94
51359;BME280;37448;51.588;7.248;2023-09-30T04:36:28;101877.63;;;11.01;92.38
51359;BME280;37448;51.588;7.248;2023-09-30T04:38:28;101879.34;;;11.00;92.42
51359;BME280;37448;51.588;7.248;2023-09-30T04:40:31;101879.38;;;10.99;92.42
51359;BME280;37448;51.588;7.248;2023-09-30T04:42:35;101880.25;;;10.98;92.77
51359;BME280;37448;51.588;7.248;2023-09-30T04:44:37;101882.84;;;10.98;92.58
51359;BME280;37448;51.588;7.248;2023-09-30T04:46:38;101886.31;;;10.98;92.82
51359;BME280;37448;51.588;7.248;2023-09-30T04:48:46;101889.81;;;10.97;92.91
51359;BME280;37448;51.588;7.248;2023-09-30T04:50:48;101886.31;;;10.97;93.00
51359;BME280;37448;51.588;7.248;2023-09-30T04:52:53;101878.47;;;10.97;92.92
51359;BME280;37448;51.588;7.248;2023-09-30T04:54:53;101888.94;;;10.97;92.40
51359;BME280;37448;51.588;7.248;2023-09-30T04:56:54;101896.78;;;10.95;92.88
51359;BME280;37448;51.588;7.248;2023-09-30T04:58:54;101899.38;;;10.94;92.40
51359;BME280;37448;51.588;7.248;2023-09-30T05:00:54;101901.16;;;10.91;92.57
51359;BME280;37448;51.588;7.248;2023-09-30T05:02:55;101904.63;;;10.90;92.42
51359;BME280;37448;51.588;7.248;2023-09-30T05:04:56;101913.38;;;10.88;92.35
51359;BME280;37448;51.588;7.248;2023-09-30T05:06:56;101908.13;;;10.86;92.52
51359;BME280;37448;51.588;7.248;2023-09-30T05:08:56;101909.00;;;10.85;92.26
51359;BME280;37448;51.588;7.248;2023-09-30T05:10:57;101902.03;;;10.84;92.36
51359;BME280;37448;51.588;7.248;2023-09-30T05:12:57;101889.88;;;10.80;92.63
51359;BME280;37448;51.588;7.248;2023-09-30T05:14:57;101897.69;;;10.80;92.76
51359;BME280;37448;51.588;7.248;2023-09-30T05:16:58;101902.06;;;10.78;92.67
51359;BME280;37448;51.588;7.248;2023-09-30T05:18:59;101912.50;;;10.78;93.04
51359;BME280;37448;51.588;7.248;2023-09-30T05:20:59;101908.16;;;10.75;92.65
51359;BME280;37448;51.588;7.248;2023-09-30T05:23:00;101912.50;;;10.78;93.48
51359;BME280;37448;51.588;7.248;2023-09-30T05:25:01;101913.38;;;10.77;92.71
51359;BME280;37448;51.588;7.248;2023-09-30T05:27:01;101904.69;;;10.75;92.72
51359;BME280;37448;51.588;7.248;2023-09-30T05:29:02;101910.78;;;10.74;93.05
51359;BME280;37448;51.588;7.248;2023-09-30T05:31:03;101909.03;;;10.74;93.53
51359;BME280;37448;51.588;7.248;2023-09-30T05:33:03;101909.91;;;10.73;93.42
51359;BME280;37448;51.588;7.248;2023-09-30T05:35:05;101910.78;;;10.72;92.91
51359;BME280;37448;51.588;7.248;2023-09-30T05:37:12;101914.25;;;10.73;93.75
51359;BME280;37448;51.588;7.248;2023-09-30T05:39:13;101912.50;;;10.73;93.83
51359;BME280;37448;51.588;7.248;2023-09-30T05:41:16;101915.13;;;10.75;93.77
51359;BME280;37448;51.588;7.248;2023-09-30T05:43:16;101923.84;;;10.75;93.95
51359;BME280;37448;51.588;7.248;2023-09-30T05:45:17;101921.22;;;10.77;93.75
51359;BME280;37448;51.588;7.248;2023-09-30T05:47:17;101917.75;;;10.78;94.20
51359;BME280;37448;51.588;7.248;2023-09-30T05:49:18;101916.84;;;10.81;94.53
51359;BME280;37448;51.588;7.248;2023-09-30T05:51:19;101908.16;;;10.83;93.88
51359;BME280;37448;51.588;7.248;2023-09-30T05:53:19;101919.47;;;10.85;94.34
51359;BME280;37448;51.588;7.248;2023-09-30T05:55:21;101922.06;;;10.88;94.01
51359;BME280;37448;51.588;7.248;2023-09-30T05:57:22;101914.22;;;10.91;94.07
51359;BME280;37448;51.588;7.248;2023-09-30T05:59:23;101920.31;;;10.95;94.56
51359;BME280;37448;51.588;7.248;2023-09-30T06:01:25;101922.03;;;10.99;94.63
51359;BME280;37448;51.588;7.248;2023-09-30T06:03:27;101909.84;;;11.03;94.39
51359;BME280;37448;51.588;7.248;2023-09-30T06:05:29;101912.44;;;11.09;94.39
51359;BME280;37448;51.588;7.248;2023-09-30T06:07:31;101910.66;;;11.14;94.23
51359;BME280;37448;51.588;7.248;2023-09-30T06:09:33;101915.88;;;11.17;94.67
51359;BME280;37448;51.588;7.248;2023-09-30T06:11:34;101909.75;;;11.23;94.71
51359;BME280;37448;51.588;7.248;2023-09-30T06:13:36;101915.00;;;11.22;94.32
51359;BME280;37448;51.588;7.248;2023-09-30T06:15:40;101917.59;;;11.28;94.67
51359;BME280;37448;51.588;7.248;2023-09-30T06:17:40;101922.81;;;11.31;94.14
51359;BME280;37448;51.588;7.248;2023-09-30T06:19:41;101916.69;;;11.32;94.58
51359;BME280;37448;51.588;7.248;2023-09-30T06:21:41;101917.56;;;11.34;94.35
51359;BME280;37448;51.588;7.248;2023-09-30T06:23:42;101917.53;;;11.37;94.31
51359;BME280;37448;51.588;7.248;2023-09-30T06:25:43;101926.25;;;11.39;94.51
51359;BME280;37448;51.588;7.248;2023-09-30T06:27:44;101929.72;;;11.41;94.30
51359;BME280;37448;51.588;7.248;2023-09-30T06:29:45;101927.13;;;11.43;94.39
51359;BME280;37448;51.588;7.248;2023-09-30T06:31:46;101931.47;;;11.45;94.19
51359;BME280;37448;51.588;7.248;2023-09-30T06:33:47;101927.09;;;11.47;94.28
51359;BME280;37448;51.588;7.248;2023-09-30T06:35:47;101930.56;;;11.53;94.68
51359;BME280;37448;51.588;7.248;2023-09-30T06:37:50;101931.41;;;11.58;94.83
51359;BME280;37448;51.588;7.248;2023-09-30T06:39:51;101927.00;;;11.63;95.13
51359;BME280;37448;51.588;7.248;2023-09-30T06:41:51;101927.88;;;11.67;94.74
51359;BME280;37448;51.588;7.248;2023-09-30T06:43:52;101943.56;;;11.71;94.84
51359;BME280;37448;51.588;7.248;2023-09-30T06:45:52;101944.41;;;11.73;94.60
51359;BME280;37448;51.588;7.248;2023-09-30T06:47:52;101945.25;;;11.78;94.22
51359;BME280;37448;51.588;7.248;2023-09-30T06:49:54;101939.97;;;11.85;95.07
51359;BME280;37448;51.588;7.248;2023-09-30T06:51:55;101945.16;;;11.97;95.60
51359;BME280;37448;51.588;7.248;2023-09-30T06:53:55;101950.25;;;12.22;95.49
51359;BME280;37448;51.588;7.248;2023-09-30T06:55:55;101954.34;;;12.53;96.19
51359;BME280;37448;51.588;7.248;2023-09-30T06:57:56;101944.47;;;12.83;95.92
51359;BME280;37448;51.588;7.248;2023-09-30T06:59:56;101956.34;;;13.16;94.68
51359;BME280;37448;51.588;7.248;2023-09-30T07:01:56;101962.88;;;13.58;94.94
51359;BME280;37448;51.588;7.248;2023-09-30T07:03:57;101957.16;;;13.92;92.26
51359;BME280;37448;51.588;7.248;2023-09-30T07:05:57;101958.41;;;14.26;91.58
51359;BME280;37448;51.588;7.248;2023-09-30T07:08:00;101955.28;;;14.55;88.09
51359;BME280;37448;51.588;7.248;2023-09-30T07:10:01;101961.84;;;14.84;89.52
51359;BME280;37448;51.588;7.248;2023-09-30T07:12:01;101966.66;;;15.06;90.66
51359;BME280;37448;51.588;7.248;2023-09-30T07:14:02;101975.03;;;15.27;89.18
51359;BME280;37448;51.588;7.248;2023-09-30T07:16:02;101974.13;;;15.28;81.86
51359;BME280;37448;51.588;7.248;2023-09-30T07:18:03;101975.50;;;15.47;87.68
51359;BME280;37448;51.588;7.248;2023-09-30T07:20:04;101973.53;;;15.59;87.95
51359;BME280;37448;51.588;7.248;2023-09-30T07:22:05;101977.91;;;15.58;86.01
51359;BME280;37448;51.588;7.248;2023-09-30T07:24:05;101977.16;;;15.52;87.53
51359;BME280;37448;51.588;7.248;2023-09-30T07:26:06;101995.53;;;15.55;90.29
51359;BME280;37448;51.588;7.248;2023-09-30T07:28:06;101996.41;;;15.55;89.47
51359;BME280;37448;51.588;7.248;2023-09-30T07:30:12;102001.88;;;15.44;84.96
51359;BME280;37448;51.588;7.248;2023-09-30T07:32:16;101998.28;;;15.48;89.15
51359;BME280;37448;51.588;7.248;2023-09-30T07:34:16;101997.53;;;15.42;87.70
51359;BME280;37448;51.588;7.248;2023-09-30T07:36:17;102015.25;;;15.35;87.79
51359;BME280;37448;51.588;7.248;2023-09-30T07:38:18;102017.88;;;15.35;88.27
51359;BME280;37448;51.588;7.248;2023-09-30T07:40:18;102015.47;;;15.23;86.94
51359;BME280;37448;51.588;7.248;2023-09-30T07:42:19;102019.91;;;15.20;89.64
51359;BME280;37448;51.588;7.248;2023-09-30T07:44:19;102018.28;;;15.13;87.32
51359;BME280;37448;51.588;7.248;2023-09-30T07:46:19;102021.19;;;14.99;83.07
51359;BME280;37448;51.588;7.248;2023-09-30T07:48:20;102015.75;;;15.07;88.55
51359;BME280;37448;51.588;7.248;2023-09-30T07:50:20;102018.38;;;15.07;88.64
51359;BME280;37448;51.588;7.248;2023-09-30T07:52:21;102021.00;;;15.09;87.47
51359;BME280;37448;51.588;7.248;2023-09-30T07:54:21;102031.50;;;15.10;86.80
51359;BME280;37448;51.588;7.248;2023-09-30T07:56:22;102029.72;;;15.11;86.34
51359;BME280;37448;51.588;7.248;2023-09-30T07:58:22;102021.75;;;15.15;87.56
51359;BME280;37448;51.588;7.248;2023-09-30T08:00:22;102029.66;;;15.14;87.47
51359;BME280;37448;51.588;7.248;2023-09-30T08:02:23;102026.94;;;15.18;88.15
51359;BME280;37448;51.588;7.248;2023-09-30T08:04:27;102034.16;;;15.07;86.78
51359;BME280;37448;51.588;7.248;2023-09-30T08:06:29;102034.28;;;15.01;85.80
51359;BME280;37448;51.588;7.248;2023-09-30T08:08:30;102035.94;;;15.08;87.90
51359;BME280;37448;51.588;7.248;2023-09-30T08:10:30;102034.03;;;15.15;90.63
51359;BME280;37448;51.588;7.248;2023-09-30T08:12:32;102028.69;;;15.19;90.40
51359;BME280;37448;51.588;7.248;2023-09-30T08:14:33;102026.81;;;15.25;89.93
51359;BME280;37448;51.588;7.248;2023-09-30T08:16:33;102031.41;;;15.15;86.72
51359;BME280;37448;51.588;7.248;2023-09-30T08:18:34;102033.88;;;15.24;88.67
51359;BME280;37448;51.588;7.248;2023-09-30T08:20:34;102039.16;;;15.23;87.43
51359;BME280;37448;51.588;7.248;2023-09-30T08:22:34;102038.03;;;15.36;90.44
51359;BME280;37448;51.588;7.248;2023-09-30T08:24:35;102035.34;;;15.39;88.94
51359;BME280;37448;51.588;7.248;2023-09-30T08:26:35;102033.47;;;15.44;87.95
51359;BME280;37448;51.588;7.248;2023-09-30T08:28:36;102039.56;;;15.48;87.35
51359;BME280;37448;51.588;7.248;2023-09-30T08:30:36;102037.00;;;15.43;84.29
51359;BME280;37448;51.588;7.248;2023-09-30T08:32:37;102041.34;;;15.46;85.15
51359;BME280;37448;51.588;7.248;2023-09-30T08:34:37;102037.78;;;15.48;84.07
51359;BME280;37448;51.588;7.248;2023-09-30T08:36:38;102047.47;;;15.46;84.18
51359;BME280;37448;51.588;7.248;2023-09-30T08:38:39;102042.97;;;15.52;85.96
51359;BME280;37448;51.588;7.248;2023-09-30T08:40:40;102032.34;;;15.58;85.86
51359;BME280;37448;51.588;7.248;2023-09-30T08:42:41;102047.25;;;15.59;83.94
51359;BME280;37448;51.588;7.248;2023-09-30T08:44:42;102041.78;;;15.68;85.92
51359;BME280;37448;51.588;7.248;2023-09-30T08:46:43;102057.50;;;15.71;84.62
51359;BME280;37448;51.588;7.248;2023-09-30T08:48:44;102056.44;;;15.82;84.71
51359;BME280;37448;51.588;7.248;2023-09-30T08:50:48;102041.53;;;15.81;83.02
51359;BME280;37448;51.588;7.248;2023-09-30T08:52:49;102047.25;;;16.01;86.21
51359;BME280;37448;51.588;7.248;2023-09-30T08:54:51;102048.88;;;16.07;88.51
51359;BME280;37448;51.588;7.248;2023-09-30T08:56:52;102041.66;;;16.15;86.21
51359;BME280;37448;51.588;7.248;2023-09-30T08:58:56;102035.47;;;16.18;84.48
51359;BME280;37448;51.588;7.248;2023-09-30T09:00:57;102038.03;;;16.21;81.91
51359;BME280;37448;51.588;7.248;2023-09-30T09:02:57;102039.50;;;16.34;84.21
51359;BME280;37448;51.588;7.248;2023-09-30T09:04:58;102040.38;;;16.33;82.98
51359;BME280;37448;51.588;7.248;2023-09-30T09:07:00;102036.47;;;16.50;84.86
51359;BME280;37448;51.588;7.248;2023-09-30T09:09:13;102023.97;;;16.58;85.18
51359;BME280;37448;51.588;7.248;2023-09-30T09:11:14;102024.75;;;16.62;79.07
51359;BME280;37448;51.588;7.248;2023-09-30T09:13:15;102019.53;;;16.60;75.94
51359;BME280;37448;51.588;7.248;2023-09-30T09:15:24;102012.97;;;16.77;80.76
51359;BME280;37448;51.588;7.248;2023-09-30T09:17:39;102016.44;;;16.79;80.43
51359;BME280;37448;51.588;7.248;2023-09-30T09:19:41;102014.56;;;16.83;77.25
51359;BME280;37448;51.588;7.248;2023-09-30T09:21:55;102012.72;;;16.86;77.09
51359;BME280;37448;51.588;7.248;2023-09-30T09:23:56;102007.53;;;16.83;79.08
51359;BME280;37448;51.588;7.248;2023-09-30T09:25:57;102007.81;;;16.71;76.62
51359;BME280;37448;51.588;7.248;2023-09-30T09:27:58;102018.09;;;16.83;78.61
51359;BME280;37448;51.588;7.248;2023-09-30T09:30:21;102022.38;;;16.87;79.34
51359;BME280;37448;51.588;7.248;2023-09-30T09:32:21;102032.19;;;16.82;79.77
51359;BME280;37448;51.588;7.248;2023-09-30T09:34:22;102026.91;;;16.82;81.17
51359;BME280;37448;51.588;7.248;2023-09-30T09:36:41;102032.72;;;16.60;79.01
51359;BME280;37448;51.588;7.248;2023-09-30T09:38:49;102023.25;;;16.52;78.67
51359;BME280;37448;51.588;7.248;2023-09-30T09:40:59;102015.09;;;16.62;81.71
51359;BME280;37448;51.588;7.248;2023-09-30T09:43:01;102014.44;;;16.87;82.51
51359;BME280;37448;51.588;7.248;2023-09-30T09:45:05;102013.53;;;16.90;79.85
51359;BME280;37448;51.588;7.248;2023-09-30T09:47:06;102017.47;;;17.08;80.86
51359;BME280;37448;51.588;7.248;2023-09-30T09:49:07;102023.59;;;17.40;80.84
51359;BME280;37448;51.588;7.248;2023-09-30T09:51:08;102019.97;;;17.44;71.41
51359;BME280;37448;51.588;7.248;2023-09-30T09:53:10;102016.81;;;17.63;75.89
51359;BME280;37448;51.588;7.248;2023-09-30T09:55:11;102013.53;;;17.85;75.07
51359;BME280;37448;51.588;7.248;2023-09-30T09:57:12;102020.97;;;18.02;73.51
51359;BME280;37448;51.588;7.248;2023-09-30T09:59:13;102020.53;;;18.43;78.76
51359;BME280;37448;51.588;7.248;2023-09-30T10:01:14;102026.22;;;18.84;78.22
51359;BME280;37448;51.588;7.248;2023-09-30T10:03:15;102020.97;;;19.10;76.60
51359;BME280;37448;51.588;7.248;2023-09-30T10:05:16;102020.72;;;19.17;65.23
51359;BME280;37448;51.588;7.248;2023-09-30T10:07:20;102016.84;;;19.50;63.44
51359;BME280;37448;51.588;7.248;2023-09-30T10:09:21;102021.69;;;19.86;69.34
51359;BME280;37448;51.588;7.248;2023-09-30T10:11:23;102027.66;;;19.93;69.65
51359;BME280;37448;51.588;7.248;2023-09-30T10:13:55;102033.50;;;20.01;70.04
51359;BME280;37448;51.588;7.248;2023-09-30T10:15:56;102040.47;;;20.26;69.74
51359;BME280;37448;51.588;7.248;2023-09-30T10:18:04;102040.56;;;20.68;69.87
51359;BME280;37448;51.588;7.248;2023-09-30T10:20:06;102046.31;;;20.57;66.12
51359;BME280;37448;51.588;7.248;2023-09-30T10:26:23;102030.25;;;21.03;64.38
51359;BME280;37448;51.588;7.248;2023-09-30T10:28:33;102029.31;;;21.04;59.16
51359;BME280;37448;51.588;7.248;2023-09-30T10:30:34;102036.28;;;21.06;64.12
51359;BME280;37448;51.588;7.248;2023-09-30T10:34:51;102043.09;;;20.71;64.17
51359;BME280;37448;51.588;7.248;2023-09-30T10:36:52;102052.50;;;20.35;61.49
51359;BME280;37448;51.588;7.248;2023-09-30T10:38:53;102043.44;;;19.96;59.37
51359;BME280;37448;51.588;7.248;2023-09-30T10:40:53;102046.06;;;19.72;61.50